createdAt,value
2019-05-03T00:02:47.483Z,17.67
2019-05-03T00:05:49.396Z,17.40
2019-05-03T00:08:16.805Z,17.47
2019-05-03T00:10:44.178Z,17.20
2019-05-03T00:13:12.750Z,17.80
2019-05-03T00:16:12.205Z,19.53
2019-05-03T00:18:42.185Z,17.20
2019-05-03T00:21:11.616Z,18.73
2019-05-03T00:23:39.288Z,17.53
2019-05-03T00:26:06.762Z,18.30
2019-05-03T00:28:34.734Z,18.33
2019-05-03T00:31:02.215Z,17.57
2019-05-03T00:33:31.672Z,17.67
2019-05-03T00:36:16.999Z,18.43
2019-05-03T00:38:45.198Z,17.93
2019-05-03T00:41:12.829Z,18.03
2019-05-03T00:43:42.248Z,17.73
2019-05-03T00:46:09.669Z,16.20
2019-05-03T00:48:37.430Z,17.30
2019-05-03T00:51:05.059Z,17.40
2019-05-03T00:53:32.448Z,17.50
2019-05-03T00:56:01.741Z,17.20
2019-05-03T00:58:31.671Z,18.50
2019-05-03T01:00:59.180Z,15.97
2019-05-03T01:03:26.506Z,17.17
2019-05-03T01:05:53.883Z,16.20
2019-05-03T01:08:22.016Z,17.90
2019-05-03T01:10:51.515Z,17.87
2019-05-03T01:13:19.044Z,17.53
2019-05-03T01:15:53.497Z,17.83
2019-05-03T01:18:21.930Z,18.37
2019-05-03T01:20:49.461Z,18.20
2019-05-03T01:23:16.978Z,18.60
2019-05-03T01:25:45.663Z,18.80
2019-05-03T01:28:13.292Z,18.40
2019-05-03T01:30:42.473Z,18.00
2019-05-03T01:33:12.118Z,19.83
2019-05-03T01:35:39.853Z,19.60
2019-05-03T01:38:07.293Z,19.33
2019-05-03T01:40:34.779Z,18.47
2019-05-03T01:43:02.350Z,17.50
2019-05-03T01:45:31.820Z,19.07
2019-05-03T01:48:21.942Z,17.50
2019-05-03T01:51:05.155Z,19.50
2019-05-03T01:53:33.543Z,19.30
2019-05-03T01:56:03.538Z,20.40
2019-05-03T01:58:32.309Z,20.63
2019-05-03T02:01:25.274Z,18.80
2019-05-03T02:04:21.592Z,19.63
2019-05-03T02:06:49.341Z,18.83
2019-05-03T02:09:16.854Z,19.13
2019-05-03T02:11:44.528Z,17.87
2019-05-03T02:14:12.352Z,19.77
2019-05-03T02:16:42.025Z,18.70
2019-05-03T02:19:09.526Z,19.70
2019-05-03T02:21:37.327Z,19.00
2019-05-03T02:24:04.703Z,19.70
2019-05-03T02:26:32.664Z,20.70
2019-05-03T02:29:01.834Z,20.13
2019-05-03T02:31:32.528Z,19.70
2019-05-03T02:33:58.997Z,20.13
2019-05-03T02:36:26.987Z,20.30
2019-05-03T02:38:55.089Z,19.80
2019-05-03T02:41:22.787Z,20.47
2019-05-03T02:43:52.190Z,21.30
2019-05-03T02:46:29.179Z,19.60
2019-05-03T02:49:19.404Z,20.00
2019-05-03T02:51:46.916Z,20.90
2019-05-03T02:54:15.708Z,20.37
2019-05-03T02:56:45.830Z,20.30
2019-05-03T02:59:15.444Z,20.20
2019-05-03T03:01:42.119Z,22.00
2019-05-03T03:04:09.795Z,21.27
2019-05-03T03:06:40.677Z,21.57
2019-05-03T03:09:08.150Z,21.23
2019-05-03T03:11:38.269Z,22.40
2019-05-03T03:14:08.625Z,22.70
2019-05-03T03:16:37.714Z,21.00
2019-05-03T03:19:06.693Z,21.27
2019-05-03T03:21:39.413Z,22.37
2019-05-03T03:24:12.461Z,20.50
2019-05-03T03:26:43.091Z,20.57
2019-05-03T03:29:11.250Z,21.53
2019-05-03T03:32:28.394Z,22.00
2019-05-03T03:35:11.583Z,23.87
2019-05-03T03:37:36.544Z,22.43
2019-05-03T03:40:06.095Z,24.03
2019-05-03T03:42:36.038Z,22.30
2019-05-03T03:45:06.022Z,22.30
2019-05-03T03:47:37.169Z,23.50
2019-05-03T03:50:05.932Z,22.63
2019-05-03T03:52:36.066Z,23.10
2019-05-03T03:55:06.208Z,23.00
2019-05-03T03:57:35.645Z,23.87
2019-05-03T04:00:05.558Z,24.30
2019-05-03T04:02:35.351Z,25.80
2019-05-03T04:05:05.574Z,23.90
2019-05-03T04:07:35.976Z,25.70
2019-05-03T04:10:05.654Z,25.80
2019-05-03T04:12:35.223Z,24.67
2019-05-03T04:15:20.502Z,26.63
2019-05-03T04:17:58.238Z,25.03
2019-05-03T04:20:28.066Z,25.57
2019-05-03T04:23:02.161Z,26.13
2019-05-03T04:25:37.287Z,24.30
2019-05-03T04:28:05.950Z,25.37
2019-05-03T04:30:36.177Z,25.90
2019-05-03T04:33:05.937Z,26.90
2019-05-03T04:35:36.023Z,25.40
2019-05-03T04:38:05.301Z,24.80
2019-05-03T04:40:31.624Z,28.80
2019-05-03T04:43:00.844Z,26.93
2019-05-03T04:45:28.525Z,28.00
2019-05-03T04:47:56.495Z,28.50
2019-05-03T04:50:25.538Z,25.30
2019-05-03T04:52:56.372Z,27.80
2019-05-03T04:55:26.286Z,28.60
2019-05-03T04:57:55.784Z,28.17
2019-05-03T05:00:25.371Z,28.10
2019-05-03T05:02:52.027Z,29.73
2019-05-03T05:05:19.798Z,28.80
2019-05-03T05:07:47.453Z,28.47
2019-05-03T05:10:15.480Z,28.20
2019-05-03T05:12:45.546Z,28.00
2019-05-03T05:15:15.435Z,28.00
2019-05-03T05:17:59.584Z,26.20
2019-05-03T05:20:41.101Z,27.10
2019-05-03T05:23:08.580Z,29.07
2019-05-03T05:25:41.184Z,27.23
2019-05-03T05:28:20.928Z,26.20
2019-05-03T05:30:49.016Z,27.30
2019-05-03T05:33:22.363Z,27.67
2019-05-03T05:35:50.276Z,25.17
2019-05-03T05:38:17.940Z,28.47
2019-05-03T05:40:45.499Z,26.13
2019-05-03T05:43:15.221Z,28.23
2019-05-03T05:45:44.923Z,26.37
2019-05-03T05:48:15.813Z,26.80
2019-05-03T05:50:44.912Z,27.63
2019-05-03T05:53:12.564Z,25.63
2019-05-03T05:55:50.783Z,27.50
2019-05-03T05:58:46.438Z,27.90
2019-05-03T06:01:21.566Z,26.87
2019-05-03T06:03:49.136Z,28.50
2019-05-03T06:06:39.604Z,29.33
2019-05-03T06:09:29.844Z,28.30
2019-05-03T06:12:04.423Z,29.90
2019-05-03T06:14:36.620Z,26.70
2019-05-03T06:17:26.716Z,28.63
2019-05-03T06:20:10.996Z,29.13
2019-05-03T06:22:47.724Z,28.87
2019-05-03T06:25:26.852Z,30.67
2019-05-03T06:27:55.121Z,28.53
2019-05-03T06:30:51.127Z,28.17
2019-05-03T06:33:18.702Z,29.60
2019-05-03T06:35:46.261Z,30.60
2019-05-03T06:38:15.244Z,30.20
2019-05-03T06:40:44.343Z,29.90
2019-05-03T06:43:12.883Z,30.03
2019-05-03T06:45:41.164Z,29.80
2019-05-03T06:48:10.266Z,29.17
2019-05-03T06:50:37.857Z,30.10
2019-05-03T06:53:12.315Z,32.10
2019-05-03T06:55:35.180Z,30.37
2019-05-03T06:58:04.968Z,30.63
2019-05-03T07:01:04.633Z,31.03
2019-05-03T07:03:46.785Z,29.93
2019-05-03T07:06:40.460Z,28.33
2019-05-03T07:09:14.485Z,29.07
2019-05-03T07:11:42.259Z,30.07
2019-05-03T07:14:10.167Z,29.70
2019-05-03T07:16:37.531Z,29.60
2019-05-03T07:19:04.871Z,27.77
2019-05-03T07:21:32.610Z,27.40
2019-05-03T07:24:00.084Z,25.50
2019-05-03T07:26:27.719Z,26.90
2019-05-03T07:28:55.396Z,27.10
2019-05-03T07:31:25.491Z,25.70
2019-05-03T07:33:55.091Z,27.50
2019-05-03T07:36:25.283Z,27.13
2019-05-03T07:38:52.697Z,27.00
2019-05-03T07:41:20.519Z,27.57
2019-05-03T07:43:48.222Z,27.77
2019-05-03T07:46:15.561Z,27.53
2019-05-03T07:48:43.178Z,28.43
2019-05-03T07:51:11.013Z,27.97
2019-05-03T07:53:38.394Z,25.57
2019-05-03T07:56:12.031Z,25.17
2019-05-03T07:58:41.037Z,25.40
2019-05-03T08:01:25.008Z,25.57
2019-05-03T08:03:55.013Z,25.50
2019-05-03T08:06:24.552Z,25.00
2019-05-03T08:08:51.884Z,25.23
2019-05-03T08:11:19.253Z,25.90
2019-05-03T08:13:46.692Z,25.80
2019-05-03T08:16:16.079Z,26.20
2019-05-03T08:18:45.698Z,25.37
2019-05-03T08:21:14.903Z,26.00
2019-05-03T08:23:42.641Z,22.93
2019-05-03T08:26:10.083Z,26.23
2019-05-03T08:28:37.442Z,24.70
2019-05-03T08:31:45.326Z,25.60
2019-05-03T08:34:19.221Z,24.80
2019-05-03T08:37:05.185Z,24.70
2019-05-03T08:39:35.391Z,26.63
2019-05-03T08:42:05.244Z,24.47
2019-05-03T08:44:35.178Z,26.53
2019-05-03T08:47:02.742Z,24.47
2019-05-03T08:49:30.110Z,26.70
2019-05-03T08:51:57.460Z,27.27
2019-05-03T08:54:26.302Z,25.93
2019-05-03T08:56:55.581Z,25.70
2019-05-03T08:59:29.698Z,26.73
2019-05-03T09:01:54.838Z,24.97
2019-05-03T09:04:34.245Z,23.60
2019-05-03T09:06:51.627Z,24.43
2019-05-03T09:09:31.611Z,23.70
2019-05-03T09:11:59.112Z,22.20
2019-05-03T09:14:38.865Z,23.63
2019-05-03T09:16:56.314Z,22.97
2019-05-03T09:19:25.270Z,23.30
2019-05-03T09:21:54.872Z,21.03
2019-05-03T09:24:24.446Z,21.93
2019-05-03T09:26:51.686Z,23.93
2019-05-03T09:29:19.085Z,24.23
2019-05-03T09:31:46.912Z,22.90
2019-05-03T09:34:14.839Z,20.20
2019-05-03T09:36:42.375Z,18.80
2019-05-03T09:39:09.898Z,19.13
2019-05-03T09:41:37.556Z,21.30
2019-05-03T09:44:04.946Z,20.93
2019-05-03T09:46:32.347Z,18.20
2019-05-03T09:49:11.894Z,19.87
2019-05-03T09:51:29.626Z,18.90
2019-05-03T09:54:05.220Z,18.80
2019-05-03T09:56:57.579Z,19.40
2019-05-03T09:59:20.447Z,17.40
2019-05-03T10:01:47.988Z,17.47
2019-05-03T10:04:17.961Z,17.90
2019-05-03T10:06:45.346Z,18.67
2019-05-03T10:09:15.205Z,16.83
2019-05-03T10:11:45.560Z,17.50
2019-05-03T10:14:12.097Z,18.07
2019-05-03T10:16:44.952Z,17.13
2019-05-03T10:19:14.365Z,15.87
2019-05-03T10:21:45.212Z,16.23
2019-05-03T10:24:12.979Z,15.10
2019-05-03T10:26:40.642Z,14.67
2019-05-03T10:29:08.196Z,13.80
2019-05-03T10:31:54.495Z,12.50
2019-05-03T10:34:22.167Z,11.60
2019-05-03T10:36:49.631Z,12.90
2019-05-03T10:39:17.772Z,12.17
2019-05-03T10:41:45.472Z,13.73
2019-05-03T10:44:15.061Z,12.93
2019-05-03T10:46:42.524Z,8.57
2019-05-03T10:49:10.006Z,8.47
2019-05-03T10:51:42.624Z,7.77
2019-05-03T10:54:10.399Z,9.30
2019-05-03T10:56:52.873Z,9.30
2019-05-03T10:59:22.290Z,9.40
2019-05-03T11:02:08.301Z,8.20
2019-05-03T11:04:35.856Z,7.40
2019-05-03T11:07:05.495Z,7.43
2019-05-03T11:09:48.111Z,6.10
2019-05-03T11:12:05.422Z,6.10
2019-05-03T11:14:35.059Z,5.57
2019-05-03T11:17:05.510Z,5.53
2019-05-03T11:19:34.680Z,6.17
2019-05-03T11:22:02.315Z,5.40
2019-05-03T11:24:30.431Z,6.17
2019-05-03T11:27:00.196Z,7.30
2019-05-03T11:29:27.973Z,7.00
2019-05-03T11:32:25.483Z,6.30
2019-05-03T11:35:04.562Z,5.57
2019-05-03T11:37:45.552Z,5.40
2019-05-03T11:40:13.158Z,5.07
2019-05-03T11:42:40.667Z,6.00
2019-05-03T11:45:08.932Z,6.30
2019-05-03T11:47:36.343Z,6.67
2019-05-03T11:50:04.240Z,6.13
2019-05-03T11:52:31.619Z,6.80
2019-05-03T11:54:59.105Z,6.93
2019-05-03T11:57:27.346Z,6.47
2019-05-03T11:59:55.881Z,6.93
2019-05-03T12:02:55.612Z,6.50
2019-05-03T12:05:25.488Z,6.37
2019-05-03T12:07:54.664Z,5.40
2019-05-03T12:10:43.632Z,5.17
2019-05-03T12:12:58.344Z,5.50
2019-05-03T12:15:25.833Z,4.83
2019-05-03T12:17:58.836Z,5.30
2019-05-03T12:20:28.731Z,5.50
2019-05-03T12:22:55.292Z,4.90
2019-05-03T12:25:25.727Z,5.43
2019-05-03T12:27:52.661Z,5.07
2019-05-03T12:30:24.756Z,4.90
2019-05-03T12:32:50.764Z,5.20
2019-05-03T12:35:18.550Z,5.20
2019-05-03T12:37:46.547Z,5.30
2019-05-03T12:40:14.920Z,5.93
2019-05-03T12:42:45.258Z,6.20
2019-05-03T12:45:12.426Z,5.90
2019-05-03T12:47:40.136Z,6.30
2019-05-03T12:50:08.042Z,6.17
2019-05-03T12:52:49.256Z,5.97
2019-05-03T12:55:05.094Z,5.87
2019-05-03T12:57:34.474Z,6.50
2019-05-03T13:00:25.121Z,6.90
2019-05-03T13:03:15.652Z,7.60
2019-05-03T13:05:45.002Z,6.23
2019-05-03T13:08:35.548Z,6.90
2019-05-03T13:11:05.271Z,5.93
2019-05-03T13:13:33.158Z,5.70
2019-05-03T13:16:00.687Z,7.10
2019-05-03T13:18:28.567Z,7.00
2019-05-03T13:20:56.333Z,7.13
2019-05-03T13:23:25.382Z,7.00
2019-05-03T13:25:54.839Z,6.87
2019-05-03T13:28:22.425Z,8.00
2019-05-03T13:30:49.886Z,7.70
2019-05-03T13:33:17.352Z,9.23
2019-05-03T13:35:45.321Z,7.43
2019-05-03T13:38:12.853Z,8.27
2019-05-03T13:40:40.454Z,7.20
2019-05-03T13:43:07.937Z,7.40
2019-05-03T13:45:35.647Z,7.03
2019-05-03T13:48:04.969Z,7.40
2019-05-03T13:50:35.003Z,7.10
2019-05-03T13:53:02.261Z,7.90
2019-05-03T13:55:30.077Z,7.00
2019-05-03T13:57:58.128Z,7.37
2019-05-03T14:00:25.886Z,6.97
2019-05-03T14:02:56.352Z,6.40
2019-05-03T14:05:24.589Z,7.43
2019-05-03T14:07:53.206Z,6.67
2019-05-03T14:13:19.282Z,6.50
2019-05-03T14:15:46.603Z,8.03
2019-05-03T14:18:15.295Z,7.03
2019-05-03T14:21:05.143Z,7.00
2019-05-03T14:23:52.558Z,6.73
2019-05-03T14:26:20.422Z,6.10
2019-05-03T14:28:47.852Z,5.90
2019-05-03T14:31:15.310Z,6.70
2019-05-03T14:33:44.765Z,5.97
2019-05-03T14:36:11.887Z,5.03
2019-05-03T14:38:39.708Z,7.20
2019-05-03T14:41:07.395Z,5.97
2019-05-03T14:43:35.495Z,6.37
2019-05-03T14:46:03.200Z,6.67
2019-05-03T14:48:30.714Z,7.27
2019-05-03T14:50:58.328Z,6.70
2019-05-03T14:53:27.036Z,6.87
2019-05-03T14:56:00.485Z,6.77
2019-05-03T14:58:46.203Z,6.23
2019-05-03T15:01:21.879Z,6.10
2019-05-03T15:03:49.684Z,7.10
2019-05-03T15:06:17.827Z,7.70
2019-05-03T15:08:46.525Z,7.00
2019-05-03T15:11:14.912Z,7.50
2019-05-03T15:13:42.764Z,6.67
2019-05-03T15:16:10.448Z,7.47
2019-05-03T15:18:38.191Z,7.23
2019-05-03T15:21:05.853Z,6.27
2019-05-03T15:23:34.720Z,7.20
2019-05-03T15:26:02.657Z,6.40
2019-05-03T15:28:30.454Z,7.80
2019-05-03T15:30:57.934Z,6.90
2019-05-03T15:33:25.392Z,7.63
2019-05-03T15:35:55.129Z,7.50
2019-05-03T15:38:23.969Z,7.57
2019-05-03T15:40:54.726Z,6.90
2019-05-03T15:43:39.309Z,7.13
2019-05-03T15:46:19.276Z,6.83
2019-05-03T15:48:49.596Z,7.27
2019-05-03T15:51:17.463Z,7.30
2019-05-03T15:53:44.945Z,6.83
2019-05-03T15:56:12.324Z,7.40
2019-05-03T15:58:40.183Z,7.10
2019-05-03T16:01:07.663Z,6.40
2019-05-03T16:03:35.722Z,6.23
2019-05-03T16:06:04.916Z,6.20
2019-05-03T16:08:33.840Z,7.30
2019-05-03T16:11:01.788Z,6.10
2019-05-03T16:13:29.424Z,5.30
2019-05-03T16:15:56.966Z,4.10
2019-05-03T16:18:24.701Z,3.90
2019-05-03T16:20:54.372Z,4.50
2019-05-03T16:23:21.660Z,3.57
2019-05-03T16:25:49.292Z,3.10
2019-05-03T16:28:39.059Z,3.13
2019-05-03T16:31:09.364Z,3.00
2019-05-03T16:33:37.175Z,2.73
2019-05-03T16:36:05.500Z,3.03
2019-05-03T16:38:35.271Z,2.20
2019-05-03T16:41:02.503Z,2.77
2019-05-03T16:43:30.096Z,2.27
2019-05-03T16:45:57.599Z,2.47
2019-05-03T16:48:25.330Z,2.30
2019-05-03T16:50:52.684Z,2.23
2019-05-03T16:53:20.313Z,2.30
2019-05-03T16:55:47.786Z,2.73
2019-05-03T16:58:16.958Z,5.00
2019-05-03T17:00:44.781Z,5.77
2019-05-03T17:03:12.292Z,5.43
2019-05-03T17:05:57.877Z,5.53
2019-05-03T17:08:36.235Z,4.60
2019-05-03T17:11:06.378Z,4.10
2019-05-03T17:13:34.634Z,4.20
2019-05-03T17:16:02.360Z,3.07
2019-05-03T17:18:30.959Z,3.70
2019-05-03T17:20:59.807Z,3.37
2019-05-03T17:23:27.282Z,3.07
2019-05-03T17:25:55.093Z,2.50
2019-05-03T17:28:22.463Z,3.63
2019-05-03T17:30:49.965Z,3.90
2019-05-03T17:33:17.358Z,3.60
2019-05-03T17:35:45.140Z,4.20
2019-05-03T17:38:13.004Z,4.00
2019-05-03T17:40:49.089Z,4.60
2019-05-03T17:43:25.430Z,4.80
2019-05-03T17:45:55.014Z,4.60
2019-05-03T17:48:22.470Z,4.87
2019-05-03T17:50:50.241Z,5.67
2019-05-03T17:53:51.862Z,4.43
2019-05-03T17:56:38.932Z,4.70
2019-05-03T17:59:10.270Z,4.73
2019-05-03T18:02:04.847Z,6.27
2019-05-03T18:04:51.981Z,5.20
2019-05-03T18:07:41.884Z,5.47
2019-05-03T18:10:10.233Z,5.80
2019-05-03T18:12:37.966Z,4.53
2019-05-03T18:15:05.912Z,6.37
2019-05-03T18:17:35.123Z,9.10
2019-05-03T18:20:04.486Z,7.37
2019-05-03T18:22:32.294Z,5.57
2019-05-03T18:25:00.100Z,5.37
2019-05-03T18:27:27.646Z,4.57
2019-05-03T18:29:55.479Z,6.30
2019-05-03T18:32:25.038Z,6.07
2019-05-03T18:34:54.590Z,5.80
2019-05-03T18:37:24.507Z,5.50
2019-05-03T18:39:54.501Z,5.53
2019-05-03T18:42:30.788Z,5.97
2019-05-03T18:45:00.645Z,6.00
2019-05-03T18:47:28.088Z,6.97
2019-05-03T18:49:55.862Z,4.87
2019-05-03T18:52:23.398Z,5.53
2019-05-03T18:54:51.697Z,7.13
2019-05-03T18:57:19.203Z,6.33
2019-05-03T18:59:46.836Z,7.60
2019-05-03T19:02:14.952Z,6.90
2019-05-03T19:04:50.038Z,6.97
2019-05-03T19:07:35.734Z,6.00
2019-05-03T19:10:18.624Z,6.70
2019-05-03T19:12:58.728Z,6.60
2019-05-03T19:15:26.376Z,6.17
2019-05-03T19:17:59.238Z,8.50
2019-05-03T19:20:26.988Z,7.13
2019-05-03T19:22:54.542Z,6.67
2019-05-03T19:25:22.184Z,6.47
2019-05-03T19:27:50.276Z,5.73
2019-05-03T19:30:18.497Z,6.80
2019-05-03T19:32:46.554Z,7.07
2019-05-03T19:35:15.538Z,6.10
2019-05-03T19:37:46.390Z,6.10
2019-05-03T19:40:13.174Z,5.80
2019-05-03T19:42:40.641Z,6.90
2019-05-03T19:45:08.483Z,7.00
2019-05-03T19:47:36.390Z,7.07
2019-05-03T19:50:05.106Z,7.20
2019-05-03T19:52:36.962Z,7.40
2019-05-03T19:55:05.119Z,7.17
2019-05-03T19:57:37.074Z,7.53
2019-05-03T20:00:05.803Z,6.60
2019-05-03T20:02:54.406Z,6.23
2019-05-03T20:05:37.705Z,6.50
2019-05-03T20:08:12.487Z,5.50
2019-05-03T20:10:40.265Z,6.27
2019-05-03T20:13:08.600Z,5.80
2019-05-03T20:15:37.292Z,6.13
2019-05-03T20:18:04.959Z,6.87
2019-05-03T20:20:32.475Z,6.20
2019-05-03T20:23:00.717Z,6.80
2019-05-03T20:25:28.208Z,5.97
2019-05-03T20:27:55.971Z,4.73
2019-05-03T20:30:25.349Z,5.60
2019-05-03T20:32:55.421Z,5.90
2019-05-03T20:35:24.947Z,6.10
2019-05-03T20:37:52.322Z,5.67
2019-05-03T20:40:19.732Z,4.17
2019-05-03T20:43:12.807Z,5.13
2019-05-03T20:46:19.684Z,5.70
2019-05-03T20:48:49.941Z,5.27
2019-05-03T20:51:18.080Z,6.20
2019-05-03T20:53:45.850Z,5.67
2019-05-03T20:56:15.318Z,5.50
2019-05-03T20:58:44.673Z,6.30
2019-05-03T21:01:12.454Z,6.13
2019-05-03T21:03:39.935Z,7.03
2019-05-03T21:06:07.403Z,6.37
2019-05-03T21:08:34.890Z,6.70
2019-05-03T21:11:02.278Z,6.33
2019-05-03T21:13:48.744Z,6.87
2019-05-03T21:17:14.780Z,5.27
2019-05-03T21:20:06.301Z,5.53
2019-05-03T21:22:54.772Z,4.90
2019-05-03T21:26:04.488Z,4.90
2019-05-03T21:28:34.554Z,5.23
2019-05-03T21:31:02.371Z,4.30
2019-05-03T21:33:29.781Z,4.53
2019-05-03T21:35:57.500Z,5.10
2019-05-03T21:38:25.132Z,5.43
2019-05-03T21:40:54.535Z,4.80
2019-05-03T21:43:21.928Z,4.77
2019-05-03T21:45:54.503Z,4.60
2019-05-03T21:48:26.362Z,5.10
2019-05-03T21:50:53.716Z,4.47
2019-05-03T21:53:21.225Z,5.20
2019-05-03T21:55:48.588Z,5.03
2019-05-03T21:58:16.596Z,4.87
2019-05-03T22:00:54.684Z,4.80
2019-05-03T22:03:25.089Z,5.20
2019-05-03T22:05:57.397Z,5.47
2019-05-03T22:08:24.696Z,5.33
2019-05-03T22:10:52.300Z,6.57
2019-05-03T22:13:19.672Z,6.40
2019-05-03T22:15:52.136Z,6.00
2019-05-03T22:18:24.861Z,5.20
2019-05-03T22:21:24.271Z,5.70
2019-05-03T22:23:59.145Z,6.10
2019-05-03T22:26:45.379Z,7.30
2019-05-03T22:29:14.430Z,5.90
2019-05-03T22:31:45.229Z,6.23
2019-05-03T22:34:12.677Z,5.53
2019-05-03T22:36:40.188Z,6.40
2019-05-03T22:39:27.258Z,6.43
2019-05-03T22:41:54.623Z,5.87
2019-05-03T22:44:22.131Z,7.13
2019-05-03T22:46:49.946Z,6.57
2019-05-03T22:49:17.830Z,6.20
2019-05-03T22:51:46.381Z,6.23
2019-05-03T22:54:15.387Z,5.30
2019-05-03T22:56:44.756Z,5.30
2019-05-03T22:59:14.518Z,5.20
2019-05-03T23:01:42.695Z,6.30
2019-05-03T23:04:10.189Z,5.00
2019-05-03T23:06:38.000Z,5.80
2019-05-03T23:09:06.263Z,6.47
2019-05-03T23:11:35.348Z,6.60
2019-05-03T23:14:04.981Z,5.67
2019-05-03T23:16:33.078Z,5.77
2019-05-03T23:19:01.133Z,5.33
2019-05-03T23:21:33.859Z,6.00
2019-05-03T23:24:01.258Z,4.53
2019-05-03T23:26:29.164Z,5.37
2019-05-03T23:28:56.705Z,5.03
2019-05-03T23:31:25.161Z,4.53
2019-05-03T23:33:54.452Z,4.20
2019-05-03T23:36:32.796Z,4.37
2019-05-03T23:38:52.075Z,4.43
2019-05-03T23:41:19.641Z,5.00
2019-05-03T23:43:47.433Z,4.60
2019-05-03T23:46:16.726Z,5.00
2019-05-03T23:48:44.800Z,5.47
2019-05-03T23:51:32.531Z,5.17
2019-05-03T23:53:59.964Z,4.70
2019-05-03T23:56:27.392Z,4.93
2019-05-03T23:58:55.134Z,5.43
